sensor_id;sensor_type;location;lat;lon;timestamp;temperature;humidity
52107;DHT22;38105;52.968;5.974;2023-08-21T00:01:08;15.40;99.90
52107;DHT22;38105;52.968;5.974;2023-08-21T00:03:34;15.40;99.90
52107;DHT22;38105;52.968;5.974;2023-08-21T00:05:59;15.40;99.90
52107;DHT22;38105;52.968;5.974;2023-08-21T00:08:25;15.40;99.90
52107;DHT22;38105;52.968;5.974;2023-08-21T00:10:50;15.50;99.90
52107;DHT22;38105;52.968;5.974;2023-08-21T00:13:16;15.50;99.90
52107;DHT22;38105;52.968;5.974;2023-08-21T00:15:41;15.50;99.90
52107;DHT22;38105;52.968;5.974;2023-08-21T00:18:07;15.50;99.90
52107;DHT22;38105;52.968;5.974;2023-08-21T00:20:33;15.40;99.90
52107;DHT22;38105;52.968;5.974;2023-08-21T00:22:58;15.30;99.90
52107;DHT22;38105;52.968;5.974;2023-08-21T00:25:24;15.30;99.90
52107;DHT22;38105;52.968;5.974;2023-08-21T00:27:50;15.30;99.90
52107;DHT22;38105;52.968;5.974;2023-08-21T00:30:15;15.30;99.90
52107;DHT22;38105;52.968;5.974;2023-08-21T00:32:41;15.20;99.90
52107;DHT22;38105;52.968;5.974;2023-08-21T00:35:07;15.30;99.90
52107;DHT22;38105;52.968;5.974;2023-08-21T00:37:32;15.30;99.90
52107;DHT22;38105;52.968;5.974;2023-08-21T00:39:58;15.30;99.90
52107;DHT22;38105;52.968;5.974;2023-08-21T00:42:23;15.30;99.90
52107;DHT22;38105;52.968;5.974;2023-08-21T00:44:49;15.20;99.90
52107;DHT22;38105;52.968;5.974;2023-08-21T00:47:14;15.20;99.90
52107;DHT22;38105;52.968;5.974;2023-08-21T00:49:40;15.20;99.90
52107;DHT22;38105;52.968;5.974;2023-08-21T00:52:07;15.00;99.90
52107;DHT22;38105;52.968;5.974;2023-08-21T00:54:33;15.10;99.90
52107;DHT22;38105;52.968;5.974;2023-08-21T00:56:59;15.10;99.90
52107;DHT22;38105;52.968;5.974;2023-08-21T00:59:25;14.90;99.90
52107;DHT22;38105;52.968;5.974;2023-08-21T01:01:51;15.00;99.90
52107;DHT22;38105;52.968;5.974;2023-08-21T01:04:16;14.80;99.90
52107;DHT22;38105;52.968;5.974;2023-08-21T01:06:42;14.80;99.90
52107;DHT22;38105;52.968;5.974;2023-08-21T01:09:08;14.90;99.90
52107;DHT22;38105;52.968;5.974;2023-08-21T01:14:06;14.60;99.90
52107;DHT22;38105;52.968;5.974;2023-08-21T01:16:33;14.60;99.90
52107;DHT22;38105;52.968;5.974;2023-08-21T01:18:59;14.60;99.90
52107;DHT22;38105;52.968;5.974;2023-08-21T01:21:26;14.50;99.90
52107;DHT22;38105;52.968;5.974;2023-08-21T01:23:52;14.50;99.90
52107;DHT22;38105;52.968;5.974;2023-08-21T01:26:18;14.50;99.90
52107;DHT22;38105;52.968;5.974;2023-08-21T01:28:43;14.50;99.90
52107;DHT22;38105;52.968;5.974;2023-08-21T01:31:17;14.50;99.90
52107;DHT22;38105;52.968;5.974;2023-08-21T01:33:48;14.50;99.90
52107;DHT22;38105;52.968;5.974;2023-08-21T01:36:16;14.50;99.90
52107;DHT22;38105;52.968;5.974;2023-08-21T01:38:42;14.40;99.90
52107;DHT22;38105;52.968;5.974;2023-08-21T01:41:08;14.50;99.90
52107;DHT22;38105;52.968;5.974;2023-08-21T01:43:34;14.50;99.90
52107;DHT22;38105;52.968;5.974;2023-08-21T01:46:00;14.50;99.90
52107;DHT22;38105;52.968;5.974;2023-08-21T01:48:26;14.50;99.90
52107;DHT22;38105;52.968;5.974;2023-08-21T01:50:52;14.50;99.90
52107;DHT22;38105;52.968;5.974;2023-08-21T01:53:17;14.40;99.90
52107;DHT22;38105;52.968;5.974;2023-08-21T01:55:43;14.40;99.90
52107;DHT22;38105;52.968;5.974;2023-08-21T01:58:08;14.50;99.90
52107;DHT22;38105;52.968;5.974;2023-08-21T02:00:34;14.40;99.90
52107;DHT22;38105;52.968;5.974;2023-08-21T02:02:59;14.40;99.90
52107;DHT22;38105;52.968;5.974;2023-08-21T02:05:25;14.30;99.90
52107;DHT22;38105;52.968;5.974;2023-08-21T02:07:50;13.90;99.90
52107;DHT22;38105;52.968;5.974;2023-08-21T02:10:16;13.70;99.90
52107;DHT22;38105;52.968;5.974;2023-08-21T02:12:41;13.80;99.90
52107;DHT22;38105;52.968;5.974;2023-08-21T02:15:07;13.70;99.90
52107;DHT22;38105;52.968;5.974;2023-08-21T02:17:33;13.80;99.90
52107;DHT22;38105;52.968;5.974;2023-08-21T02:19:58;13.80;99.90
52107;DHT22;38105;52.968;5.974;2023-08-21T02:22:24;13.90;99.90
52107;DHT22;38105;52.968;5.974;2023-08-21T02:24:49;14.00;99.90
52107;DHT22;38105;52.968;5.974;2023-08-21T02:27:15;14.10;99.90
52107;DHT22;38105;52.968;5.974;2023-08-21T02:29:41;14.10;99.90
52107;DHT22;38105;52.968;5.974;2023-08-21T02:32:06;14.10;99.90
52107;DHT22;38105;52.968;5.974;2023-08-21T02:34:32;14.00;99.90
52107;DHT22;38105;52.968;5.974;2023-08-21T02:36:57;14.10;99.90
52107;DHT22;38105;52.968;5.974;2023-08-21T02:39:23;14.00;99.90
52107;DHT22;38105;52.968;5.974;2023-08-21T02:41:49;14.10;99.90
52107;DHT22;38105;52.968;5.974;2023-08-21T02:44:15;14.10;99.90
52107;DHT22;38105;52.968;5.974;2023-08-21T02:46:40;14.10;99.90
52107;DHT22;38105;52.968;5.974;2023-08-21T02:49:06;14.00;99.90
52107;DHT22;38105;52.968;5.974;2023-08-21T02:51:31;14.10;99.90
52107;DHT22;38105;52.968;5.974;2023-08-21T02:53:57;14.00;99.90
52107;DHT22;38105;52.968;5.974;2023-08-21T02:56:23;13.90;99.90
52107;DHT22;38105;52.968;5.974;2023-08-21T02:58:48;14.10;99.90
52107;DHT22;38105;52.968;5.974;2023-08-21T03:01:14;14.00;99.90
52107;DHT22;38105;52.968;5.974;2023-08-21T03:03:39;14.00;99.90
52107;DHT22;38105;52.968;5.974;2023-08-21T03:06:05;13.90;99.90
52107;DHT22;38105;52.968;5.974;2023-08-21T03:08:31;13.70;99.90
52107;DHT22;38105;52.968;5.974;2023-08-21T03:10:56;13.80;99.90
52107;DHT22;38105;52.968;5.974;2023-08-21T03:13:22;13.70;99.90
52107;DHT22;38105;52.968;5.974;2023-08-21T03:15:47;13.60;99.90
52107;DHT22;38105;52.968;5.974;2023-08-21T03:18:13;13.70;99.90
52107;DHT22;38105;52.968;5.974;2023-08-21T03:20:43;13.70;99.90
52107;DHT22;38105;52.968;5.974;2023-08-21T03:23:12;13.60;99.90
52107;DHT22;38105;52.968;5.974;2023-08-21T03:25:37;13.60;99.90
52107;DHT22;38105;52.968;5.974;2023-08-21T03:28:03;13.70;99.90
52107;DHT22;38105;52.968;5.974;2023-08-21T03:30:29;13.70;99.90
52107;DHT22;38105;52.968;5.974;2023-08-21T03:32:54;13.70;99.90
52107;DHT22;38105;52.968;5.974;2023-08-21T03:35:20;13.70;99.90
52107;DHT22;38105;52.968;5.974;2023-08-21T03:37:45;13.70;99.90
52107;DHT22;38105;52.968;5.974;2023-08-21T03:40:11;13.70;99.90
52107;DHT22;38105;52.968;5.974;2023-08-21T03:42:36;13.70;99.90
52107;DHT22;38105;52.968;5.974;2023-08-21T03:45:02;13.70;99.90
52107;DHT22;38105;52.968;5.974;2023-08-21T03:47:30;13.60;99.90
52107;DHT22;38105;52.968;5.974;2023-08-21T03:49:56;13.70;99.90
52107;DHT22;38105;52.968;5.974;2023-08-21T03:52:21;13.70;99.90
52107;DHT22;38105;52.968;5.974;2023-08-21T03:54:47;13.60;99.90
52107;DHT22;38105;52.968;5.974;2023-08-21T03:57:12;13.70;99.90
52107;DHT22;38105;52.968;5.974;2023-08-21T03:59:38;13.70;99.90
52107;DHT22;38105;52.968;5.974;2023-08-21T04:02:04;13.60;99.90
52107;DHT22;38105;52.968;5.974;2023-08-21T04:04:29;13.60;99.90
52107;DHT22;38105;52.968;5.974;2023-08-21T04:06:55;13.50;99.90
52107;DHT22;38105;52.968;5.974;2023-08-21T04:09:20;13.60;99.90
52107;DHT22;38105;52.968;5.974;2023-08-21T04:11:46;13.40;99.90
52107;DHT22;38105;52.968;5.974;2023-08-21T04:14:11;13.40;99.90
52107;DHT22;38105;52.968;5.974;2023-08-21T04:16:37;13.30;99.90
52107;DHT22;38105;52.968;5.974;2023-08-21T04:19:02;13.30;99.90
52107;DHT22;38105;52.968;5.974;2023-08-21T04:21:28;13.30;99.90
52107;DHT22;38105;52.968;5.974;2023-08-21T04:23:53;13.20;99.90
52107;DHT22;38105;52.968;5.974;2023-08-21T04:26:19;13.30;99.90
52107;DHT22;38105;52.968;5.974;2023-08-21T04:28:45;13.30;99.90
52107;DHT22;38105;52.968;5.974;2023-08-21T04:31:10;13.40;99.90
52107;DHT22;38105;52.968;5.974;2023-08-21T04:33:36;13.40;99.90
52107;DHT22;38105;52.968;5.974;2023-08-21T04:36:02;13.30;99.90
52107;DHT22;38105;52.968;5.974;2023-08-21T04:38:30;13.50;99.90
52107;DHT22;38105;52.968;5.974;2023-08-21T04:40:56;13.50;99.90
52107;DHT22;38105;52.968;5.974;2023-08-21T04:43:21;13.40;99.90
52107;DHT22;38105;52.968;5.974;2023-08-21T04:45:47;13.30;99.90
52107;DHT22;38105;52.968;5.974;2023-08-21T04:48:13;13.30;99.90
52107;DHT22;38105;52.968;5.974;2023-08-21T04:50:39;13.30;99.90
52107;DHT22;38105;52.968;5.974;2023-08-21T04:53:04;13.20;99.90
52107;DHT22;38105;52.968;5.974;2023-08-21T04:55:30;13.30;99.90
52107;DHT22;38105;52.968;5.974;2023-08-21T04:57:58;13.40;99.90
52107;DHT22;38105;52.968;5.974;2023-08-21T05:00:24;13.50;99.90
52107;DHT22;38105;52.968;5.974;2023-08-21T05:02:50;13.60;99.90
52107;DHT22;38105;52.968;5.974;2023-08-21T05:05:15;13.70;99.90
52107;DHT22;38105;52.968;5.974;2023-08-21T05:07:41;13.90;99.90
52107;DHT22;38105;52.968;5.974;2023-08-21T05:10:06;14.10;99.90
52107;DHT22;38105;52.968;5.974;2023-08-21T05:12:32;14.50;99.90
52107;DHT22;38105;52.968;5.974;2023-08-21T05:14:58;15.00;99.90
52107;DHT22;38105;52.968;5.974;2023-08-21T05:17:24;15.60;99.90
52107;DHT22;38105;52.968;5.974;2023-08-21T05:19:50;16.30;99.90
52107;DHT22;38105;52.968;5.974;2023-08-21T05:22:15;16.90;99.90
52107;DHT22;38105;52.968;5.974;2023-08-21T05:24:41;17.50;99.90
52107;DHT22;38105;52.968;5.974;2023-08-21T05:27:06;18.30;99.90
52107;DHT22;38105;52.968;5.974;2023-08-21T05:29:32;19.00;99.90
52107;DHT22;38105;52.968;5.974;2023-08-21T05:31:57;19.80;99.90
52107;DHT22;38105;52.968;5.974;2023-08-21T05:34:23;20.30;99.90
52107;DHT22;38105;52.968;5.974;2023-08-21T05:36:50;21.00;99.90
52107;DHT22;38105;52.968;5.974;2023-08-21T05:39:16;21.50;99.90
52107;DHT22;38105;52.968;5.974;2023-08-21T05:41:44;22.00;99.90
52107;DHT22;38105;52.968;5.974;2023-08-21T05:44:09;22.50;99.90
52107;DHT22;38105;52.968;5.974;2023-08-21T05:46:35;23.00;99.90
52107;DHT22;38105;52.968;5.974;2023-08-21T05:49:00;23.40;99.90
52107;DHT22;38105;52.968;5.974;2023-08-21T05:51:26;24.00;99.90
52107;DHT22;38105;52.968;5.974;2023-08-21T05:53:51;24.50;99.90
52107;DHT22;38105;52.968;5.974;2023-08-21T05:56:17;24.60;99.90
52107;DHT22;38105;52.968;5.974;2023-08-21T05:58:43;25.20;99.90
52107;DHT22;38105;52.968;5.974;2023-08-21T06:01:08;25.80;99.90
52107;DHT22;38105;52.968;5.974;2023-08-21T06:03:34;26.20;99.90
52107;DHT22;38105;52.968;5.974;2023-08-21T06:05:59;26.40;99.90
52107;DHT22;38105;52.968;5.974;2023-08-21T06:08:25;26.70;99.90
52107;DHT22;38105;52.968;5.974;2023-08-21T06:10:51;26.90;99.90
52107;DHT22;38105;52.968;5.974;2023-08-21T06:13:17;27.30;99.90
52107;DHT22;38105;52.968;5.974;2023-08-21T06:15:46;27.90;99.90
52107;DHT22;38105;52.968;5.974;2023-08-21T06:18:11;28.20;99.90
52107;DHT22;38105;52.968;5.974;2023-08-21T06:20:37;28.50;99.90
52107;DHT22;38105;52.968;5.974;2023-08-21T06:23:02;29.00;99.90
52107;DHT22;38105;52.968;5.974;2023-08-21T06:25:28;28.80;99.90
52107;DHT22;38105;52.968;5.974;2023-08-21T06:27:55;28.70;99.90
52107;DHT22;38105;52.968;5.974;2023-08-21T06:30:21;28.80;99.90
52107;DHT22;38105;52.968;5.974;2023-08-21T06:32:47;28.80;99.90
52107;DHT22;38105;52.968;5.974;2023-08-21T06:35:12;28.90;99.90
52107;DHT22;38105;52.968;5.974;2023-08-21T06:37:39;29.30;99.90
52107;DHT22;38105;52.968;5.974;2023-08-21T06:40:05;29.60;99.90
52107;DHT22;38105;52.968;5.974;2023-08-21T06:42:31;29.70;99.90
52107;DHT22;38105;52.968;5.974;2023-08-21T06:44:56;30.00;99.90
52107;DHT22;38105;52.968;5.974;2023-08-21T06:47:22;30.10;99.90
52107;DHT22;38105;52.968;5.974;2023-08-21T06:49:47;30.60;99.90
52107;DHT22;38105;52.968;5.974;2023-08-21T06:52:13;31.20;99.90
52107;DHT22;38105;52.968;5.974;2023-08-21T06:54:38;31.70;99.90
52107;DHT22;38105;52.968;5.974;2023-08-21T06:57:04;32.20;99.90
52107;DHT22;38105;52.968;5.974;2023-08-21T06:59:30;32.50;99.90
52107;DHT22;38105;52.968;5.974;2023-08-21T07:01:55;33.00;99.90
52107;DHT22;38105;52.968;5.974;2023-08-21T07:04:21;33.10;99.90
52107;DHT22;38105;52.968;5.974;2023-08-21T07:06:46;33.50;99.90
52107;DHT22;38105;52.968;5.974;2023-08-21T07:09:12;33.50;99.90
52107;DHT22;38105;52.968;5.974;2023-08-21T07:11:38;33.60;99.90
52107;DHT22;38105;52.968;5.974;2023-08-21T07:14:03;33.80;99.90
52107;DHT22;38105;52.968;5.974;2023-08-21T07:16:29;33.90;99.90
52107;DHT22;38105;52.968;5.974;2023-08-21T07:18:54;34.00;99.90
52107;DHT22;38105;52.968;5.974;2023-08-21T07:21:20;34.10;99.90
52107;DHT22;38105;52.968;5.974;2023-08-21T07:23:46;34.20;99.90
52107;DHT22;38105;52.968;5.974;2023-08-21T07:26:11;34.40;99.90
52107;DHT22;38105;52.968;5.974;2023-08-21T07:28:37;34.90;99.90
52107;DHT22;38105;52.968;5.974;2023-08-21T07:31:02;35.10;99.90
52107;DHT22;38105;52.968;5.974;2023-08-21T07:33:28;35.40;99.90
52107;DHT22;38105;52.968;5.974;2023-08-21T07:36:00;35.50;99.50
52107;DHT22;38105;52.968;5.974;2023-08-21T07:38:26;35.60;99.30
52107;DHT22;38105;52.968;5.974;2023-08-21T07:41:01;35.60;99.50
52107;DHT22;38105;52.968;5.974;2023-08-21T07:43:26;36.00;99.40
52107;DHT22;38105;52.968;5.974;2023-08-21T07:45:52;36.50;99.40
52107;DHT22;38105;52.968;5.974;2023-08-21T07:48:18;36.10;98.40
52107;DHT22;38105;52.968;5.974;2023-08-21T07:50:49;36.00;98.40
52107;DHT22;38105;52.968;5.974;2023-08-21T07:53:15;36.20;98.30
52107;DHT22;38105;52.968;5.974;2023-08-21T07:55:40;35.40;98.30
52107;DHT22;38105;52.968;5.974;2023-08-21T07:58:06;35.80;99.20
52107;DHT22;38105;52.968;5.974;2023-08-21T08:00:32;35.90;98.30
52107;DHT22;38105;52.968;5.974;2023-08-21T08:02:58;35.90;98.60
52107;DHT22;38105;52.968;5.974;2023-08-21T08:05:23;35.90;98.30
52107;DHT22;38105;52.968;5.974;2023-08-21T08:07:49;36.00;98.60
52107;DHT22;38105;52.968;5.974;2023-08-21T08:10:15;36.70;98.40
52107;DHT22;38105;52.968;5.974;2023-08-21T08:12:43;37.10;98.10
52107;DHT22;38105;52.968;5.974;2023-08-21T08:15:12;36.90;97.30
52107;DHT22;38105;52.968;5.974;2023-08-21T08:17:37;36.80;97.00
52107;DHT22;38105;52.968;5.974;2023-08-21T08:20:03;36.50;97.60
52107;DHT22;38105;52.968;5.974;2023-08-21T08:22:29;36.80;97.60
52107;DHT22;38105;52.968;5.974;2023-08-21T08:24:54;37.10;96.70
52107;DHT22;38105;52.968;5.974;2023-08-21T08:27:20;37.40;96.30
52107;DHT22;38105;52.968;5.974;2023-08-21T08:29:45;37.50;96.70
52107;DHT22;38105;52.968;5.974;2023-08-21T08:32:11;37.60;96.50
52107;DHT22;38105;52.968;5.974;2023-08-21T08:34:36;36.90;95.80
52107;DHT22;38105;52.968;5.974;2023-08-21T08:37:02;37.00;96.60
52107;DHT22;38105;52.968;5.974;2023-08-21T08:39:27;37.00;96.20
52107;DHT22;38105;52.968;5.974;2023-08-21T08:41:55;37.20;96.40
52107;DHT22;38105;52.968;5.974;2023-08-21T08:44:21;37.00;95.80
52107;DHT22;38105;52.968;5.974;2023-08-21T08:46:50;36.80;96.50
52107;DHT22;38105;52.968;5.974;2023-08-21T08:49:16;37.00;96.10
52107;DHT22;38105;52.968;5.974;2023-08-21T08:51:41;37.10;95.90
52107;DHT22;38105;52.968;5.974;2023-08-21T08:54:08;37.40;95.80
52107;DHT22;38105;52.968;5.974;2023-08-21T08:56:34;38.10;96.00
52107;DHT22;38105;52.968;5.974;2023-08-21T08:59:01;38.20;94.60
52107;DHT22;38105;52.968;5.974;2023-08-21T09:01:26;38.50;94.50
52107;DHT22;38105;52.968;5.974;2023-08-21T09:03:52;38.30;94.50
52107;DHT22;38105;52.968;5.974;2023-08-21T09:06:18;38.60;95.20
52107;DHT22;38105;52.968;5.974;2023-08-21T09:08:53;37.50;93.70
52107;DHT22;38105;52.968;5.974;2023-08-21T09:11:18;38.20;93.90
52107;DHT22;38105;52.968;5.974;2023-08-21T09:13:45;38.30;93.50
52107;DHT22;38105;52.968;5.974;2023-08-21T09:16:10;38.20;93.60
52107;DHT22;38105;52.968;5.974;2023-08-21T09:18:36;38.40;93.90
52107;DHT22;38105;52.968;5.974;2023-08-21T09:21:02;38.80;93.40
52107;DHT22;38105;52.968;5.974;2023-08-21T09:23:27;39.00;93.80
52107;DHT22;38105;52.968;5.974;2023-08-21T09:25:56;39.00;93.20
52107;DHT22;38105;52.968;5.974;2023-08-21T09:28:22;38.30;92.60
52107;DHT22;38105;52.968;5.974;2023-08-21T09:30:48;38.40;93.10
52107;DHT22;38105;52.968;5.974;2023-08-21T09:33:21;37.90;92.80
52107;DHT22;38105;52.968;5.974;2023-08-21T09:35:47;37.80;93.20
52107;DHT22;38105;52.968;5.974;2023-08-21T09:38:13;37.80;93.70
52107;DHT22;38105;52.968;5.974;2023-08-21T09:40:43;37.90;94.20
52107;DHT22;38105;52.968;5.974;2023-08-21T09:43:14;37.90;94.50
52107;DHT22;38105;52.968;5.974;2023-08-21T09:45:40;37.70;93.80
52107;DHT22;38105;52.968;5.974;2023-08-21T09:48:06;37.90;93.20
52107;DHT22;38105;52.968;5.974;2023-08-21T09:50:32;38.10;93.80
52107;DHT22;38105;52.968;5.974;2023-08-21T09:52:58;37.90;93.50
52107;DHT22;38105;52.968;5.974;2023-08-21T09:55:24;38.00;93.30
52107;DHT22;38105;52.968;5.974;2023-08-21T09:57:51;37.80;94.30
52107;DHT22;38105;52.968;5.974;2023-08-21T10:00:30;37.70;92.90
52107;DHT22;38105;52.968;5.974;2023-08-21T10:02:58;37.60;93.10
52107;DHT22;38105;52.968;5.974;2023-08-21T10:05:24;37.30;93.40
52107;DHT22;38105;52.968;5.974;2023-08-21T10:07:50;36.60;92.50
52107;DHT22;38105;52.968;5.974;2023-08-21T10:10:17;36.70;93.40
52107;DHT22;38105;52.968;5.974;2023-08-21T10:12:42;36.80;93.80
52107;DHT22;38105;52.968;5.974;2023-08-21T10:15:08;36.40;93.20
52107;DHT22;38105;52.968;5.974;2023-08-21T10:17:35;36.00;93.40
52107;DHT22;38105;52.968;5.974;2023-08-21T10:20:07;35.60;94.30
52107;DHT22;38105;52.968;5.974;2023-08-21T10:22:37;35.20;93.30
52107;DHT22;38105;52.968;5.974;2023-08-21T10:25:03;35.20;95.30
52107;DHT22;38105;52.968;5.974;2023-08-21T10:27:29;34.90;94.80
52107;DHT22;38105;52.968;5.974;2023-08-21T10:29:56;34.60;94.60
52107;DHT22;38105;52.968;5.974;2023-08-21T10:32:22;34.30;93.80
52107;DHT22;38105;52.968;5.974;2023-08-21T10:34:51;34.10;95.60
52107;DHT22;38105;52.968;5.974;2023-08-21T10:37:17;34.30;95.50
52107;DHT22;38105;52.968;5.974;2023-08-21T10:40:00;33.70;95.20
52107;DHT22;38105;52.968;5.974;2023-08-21T10:42:37;33.30;95.60
52107;DHT22;38105;52.968;5.974;2023-08-21T10:45:09;33.30;95.90
52107;DHT22;38105;52.968;5.974;2023-08-21T10:47:35;33.60;94.90
52107;DHT22;38105;52.968;5.974;2023-08-21T10:50:05;33.30;93.40
52107;DHT22;38105;52.968;5.974;2023-08-21T10:54:59;32.70;94.20
52107;DHT22;38105;52.968;5.974;2023-08-21T10:57:28;32.50;94.90
52107;DHT22;38105;52.968;5.974;2023-08-21T10:59:58;32.60;95.70
52107;DHT22;38105;52.968;5.974;2023-08-21T11:02:24;32.50;94.40
52107;DHT22;38105;52.968;5.974;2023-08-21T11:04:51;32.40;96.10
52107;DHT22;38105;52.968;5.974;2023-08-21T11:07:19;32.40;95.60
52107;DHT22;38105;52.968;5.974;2023-08-21T11:09:46;32.20;96.10
52107;DHT22;38105;52.968;5.974;2023-08-21T11:12:13;32.40;96.40
52107;DHT22;38105;52.968;5.974;2023-08-21T11:14:39;31.90;95.20
52107;DHT22;38105;52.968;5.974;2023-08-21T11:17:05;31.70;94.80
52107;DHT22;38105;52.968;5.974;2023-08-21T11:19:32;31.80;95.90
52107;DHT22;38105;52.968;5.974;2023-08-21T11:21:57;31.80;96.30
52107;DHT22;38105;52.968;5.974;2023-08-21T11:27:04;31.60;94.00
52107;DHT22;38105;52.968;5.974;2023-08-21T11:29:40;31.40;93.80
52107;DHT22;38105;52.968;5.974;2023-08-21T11:32:22;31.20;96.30
52107;DHT22;38105;52.968;5.974;2023-08-21T11:34:49;31.30;96.30
52107;DHT22;38105;52.968;5.974;2023-08-21T11:37:18;31.30;96.10
52107;DHT22;38105;52.968;5.974;2023-08-21T11:42:10;31.10;94.80
52107;DHT22;38105;52.968;5.974;2023-08-21T11:44:40;31.10;96.00
52107;DHT22;38105;52.968;5.974;2023-08-21T11:47:06;31.00;95.50
52107;DHT22;38105;52.968;5.974;2023-08-21T11:49:36;30.70;94.80
52107;DHT22;38105;52.968;5.974;2023-08-21T11:52:01;30.90;96.00
52107;DHT22;38105;52.968;5.974;2023-08-21T11:54:31;30.70;95.90
52107;DHT22;38105;52.968;5.974;2023-08-21T11:56:57;30.90;94.60
52107;DHT22;38105;52.968;5.974;2023-08-21T11:59:23;30.70;96.50
52107;DHT22;38105;52.968;5.974;2023-08-21T12:01:51;30.70;95.30
52107;DHT22;38105;52.968;5.974;2023-08-21T12:04:17;30.70;95.00
52107;DHT22;38105;52.968;5.974;2023-08-21T12:06:44;30.70;96.80
52107;DHT22;38105;52.968;5.974;2023-08-21T12:09:09;30.70;95.30
52107;DHT22;38105;52.968;5.974;2023-08-21T12:11:35;30.50;94.60
52107;DHT22;38105;52.968;5.974;2023-08-21T12:14:03;30.50;95.60
52107;DHT22;38105;52.968;5.974;2023-08-21T12:16:29;30.50;96.10
52107;DHT22;38105;52.968;5.974;2023-08-21T12:18:54;30.20;94.70
52107;DHT22;38105;52.968;5.974;2023-08-21T12:21:23;30.10;94.90
52107;DHT22;38105;52.968;5.974;2023-08-21T12:23:48;30.20;96.30
52107;DHT22;38105;52.968;5.974;2023-08-21T12:26:14;30.30;96.10
52107;DHT22;38105;52.968;5.974;2023-08-21T12:28:49;30.20;95.60
52107;DHT22;38105;52.968;5.974;2023-08-21T12:31:14;30.10;95.80
52107;DHT22;38105;52.968;5.974;2023-08-21T12:33:40;30.20;96.60
52107;DHT22;38105;52.968;5.974;2023-08-21T12:36:06;30.10;96.30
52107;DHT22;38105;52.968;5.974;2023-08-21T12:38:34;30.10;95.90
52107;DHT22;38105;52.968;5.974;2023-08-21T12:41:00;30.00;96.50
52107;DHT22;38105;52.968;5.974;2023-08-21T12:43:26;29.80;96.00
52107;DHT22;38105;52.968;5.974;2023-08-21T12:45:52;29.80;95.80
52107;DHT22;38105;52.968;5.974;2023-08-21T12:48:17;29.50;95.10
52107;DHT22;38105;52.968;5.974;2023-08-21T12:50:43;29.40;96.60
52107;DHT22;38105;52.968;5.974;2023-08-21T12:53:08;29.40;97.10
52107;DHT22;38105;52.968;5.974;2023-08-21T12:55:34;29.30;97.20
52107;DHT22;38105;52.968;5.974;2023-08-21T12:57:59;29.40;95.40
52107;DHT22;38105;52.968;5.974;2023-08-21T13:00:25;29.40;96.70
52107;DHT22;38105;52.968;5.974;2023-08-21T13:02:51;29.30;96.80
52107;DHT22;38105;52.968;5.974;2023-08-21T13:05:16;29.30;95.60
52107;DHT22;38105;52.968;5.974;2023-08-21T13:07:42;29.40;96.30
52107;DHT22;38105;52.968;5.974;2023-08-21T13:10:08;29.40;96.70
52107;DHT22;38105;52.968;5.974;2023-08-21T13:12:34;29.50;96.90
52107;DHT22;38105;52.968;5.974;2023-08-21T13:14:59;29.40;97.00
52107;DHT22;38105;52.968;5.974;2023-08-21T13:17:25;29.40;96.60
52107;DHT22;38105;52.968;5.974;2023-08-21T13:19:51;29.40;96.60
52107;DHT22;38105;52.968;5.974;2023-08-21T13:22:17;29.30;97.00
52107;DHT22;38105;52.968;5.974;2023-08-21T13:24:43;29.30;97.50
52107;DHT22;38105;52.968;5.974;2023-08-21T13:27:08;29.10;96.10
52107;DHT22;38105;52.968;5.974;2023-08-21T13:29:34;29.10;96.20
52107;DHT22;38105;52.968;5.974;2023-08-21T13:32:00;29.00;97.00
52107;DHT22;38105;52.968;5.974;2023-08-21T13:34:25;29.00;97.00
52107;DHT22;38105;52.968;5.974;2023-08-21T13:36:51;28.80;97.10
52107;DHT22;38105;52.968;5.974;2023-08-21T13:39:16;28.70;97.40
52107;DHT22;38105;52.968;5.974;2023-08-21T13:41:42;28.90;97.00
52107;DHT22;38105;52.968;5.974;2023-08-21T13:44:07;28.70;97.30
52107;DHT22;38105;52.968;5.974;2023-08-21T13:46:33;28.80;96.90
52107;DHT22;38105;52.968;5.974;2023-08-21T13:48:59;28.90;96.70
52107;DHT22;38105;52.968;5.974;2023-08-21T13:51:25;28.70;98.20
52107;DHT22;38105;52.968;5.974;2023-08-21T13:53:50;28.70;98.40
52107;DHT22;38105;52.968;5.974;2023-08-21T13:56:16;28.70;97.50
52107;DHT22;38105;52.968;5.974;2023-08-21T13:58:42;28.60;97.10
52107;DHT22;38105;52.968;5.974;2023-08-21T14:01:07;28.30;97.40
52107;DHT22;38105;52.968;5.974;2023-08-21T14:03:33;28.30;99.10
52107;DHT22;38105;52.968;5.974;2023-08-21T14:05:59;28.30;98.60
52107;DHT22;38105;52.968;5.974;2023-08-21T14:08:25;28.40;99.30
52107;DHT22;38105;52.968;5.974;2023-08-21T14:10:50;28.40;98.40
52107;DHT22;38105;52.968;5.974;2023-08-21T14:13:16;28.30;98.70
52107;DHT22;38105;52.968;5.974;2023-08-21T14:15:42;28.00;98.10
52107;DHT22;38105;52.968;5.974;2023-08-21T14:18:07;27.90;99.90
52107;DHT22;38105;52.968;5.974;2023-08-21T14:20:33;27.70;99.90
52107;DHT22;38105;52.968;5.974;2023-08-21T14:22:59;27.70;99.90
52107;DHT22;38105;52.968;5.974;2023-08-21T14:25:24;27.60;99.90
52107;DHT22;38105;52.968;5.974;2023-08-21T14:27:50;27.50;99.90
52107;DHT22;38105;52.968;5.974;2023-08-21T14:30:16;27.50;99.90
52107;DHT22;38105;52.968;5.974;2023-08-21T14:32:41;27.40;99.90
52107;DHT22;38105;52.968;5.974;2023-08-21T14:35:07;27.50;99.90
52107;DHT22;38105;52.968;5.974;2023-08-21T14:37:33;27.50;99.90
52107;DHT22;38105;52.968;5.974;2023-08-21T14:39:59;27.50;99.90
52107;DHT22;38105;52.968;5.974;2023-08-21T14:42:25;27.40;99.90
52107;DHT22;38105;52.968;5.974;2023-08-21T14:44:50;27.60;99.90
52107;DHT22;38105;52.968;5.974;2023-08-21T14:47:16;27.70;99.90
52107;DHT22;38105;52.968;5.974;2023-08-21T14:49:41;27.80;99.90
52107;DHT22;38105;52.968;5.974;2023-08-21T14:52:07;27.60;99.90
52107;DHT22;38105;52.968;5.974;2023-08-21T14:54:35;27.80;99.90
52107;DHT22;38105;52.968;5.974;2023-08-21T14:57:01;27.70;99.90
52107;DHT22;38105;52.968;5.974;2023-08-21T14:59:27;27.70;99.90
52107;DHT22;38105;52.968;5.974;2023-08-21T15:01:52;27.60;99.90
52107;DHT22;38105;52.968;5.974;2023-08-21T15:04:19;27.50;99.90
52107;DHT22;38105;52.968;5.974;2023-08-21T15:06:45;27.50;99.90
52107;DHT22;38105;52.968;5.974;2023-08-21T15:09:10;27.40;99.90
52107;DHT22;38105;52.968;5.974;2023-08-21T15:11:36;27.40;99.90
52107;DHT22;38105;52.968;5.974;2023-08-21T15:14:02;27.30;99.90
52107;DHT22;38105;52.968;5.974;2023-08-21T15:16:28;27.40;99.90
52107;DHT22;38105;52.968;5.974;2023-08-21T15:18:53;27.30;99.90
52107;DHT22;38105;52.968;5.974;2023-08-21T15:21:19;27.20;99.90
52107;DHT22;38105;52.968;5.974;2023-08-21T15:23:45;27.10;99.90
52107;DHT22;38105;52.968;5.974;2023-08-21T15:26:11;27.10;99.90
52107;DHT22;38105;52.968;5.974;2023-08-21T15:28:36;27.00;99.90
52107;DHT22;38105;52.968;5.974;2023-08-21T15:31:02;27.00;99.90
52107;DHT22;38105;52.968;5.974;2023-08-21T15:33:28;26.90;99.90